createdAt,value
2019-05-14T00:01:16.512Z,99909.03
2019-05-14T00:03:51.648Z,99902.97
2019-05-14T00:06:25.729Z,99911.36
2019-05-14T00:08:57.324Z,99914.62
2019-05-14T00:11:31.217Z,99907.22
2019-05-14T00:14:03.936Z,99904.89
2019-05-14T00:16:35.599Z,99902.73
2019-05-14T00:19:07.275Z,99903.22
2019-05-14T00:21:39.036Z,99901.77
2019-05-14T00:24:11.378Z,99899.84
2019-05-14T00:26:43.521Z,99900.78
2019-05-14T00:29:15.209Z,99895.95
2019-05-14T00:31:46.862Z,99894.50
2019-05-14T00:34:21.340Z,99889.14
2019-05-14T00:36:52.608Z,99889.16
2019-05-14T00:39:24.471Z,99891.82
2019-05-14T00:41:56.097Z,99893.77
2019-05-14T00:44:27.758Z,99894.86
2019-05-14T00:46:59.353Z,99892.05
2019-05-14T00:49:33.360Z,99897.41
2019-05-14T00:52:06.195Z,99886.61
2019-05-14T00:54:41.696Z,99889.75
2019-05-14T00:57:15.343Z,99881.75
2019-05-14T00:59:47.077Z,99883.80
2019-05-14T01:02:18.703Z,99879.45
2019-05-14T01:04:51.653Z,99879.31
2019-05-14T01:07:23.567Z,99883.69
2019-05-14T01:09:55.250Z,99880.29
2019-05-14T01:12:26.952Z,99882.84
2019-05-14T01:15:09.635Z,99881.11
2019-05-14T01:17:34.922Z,99875.54
2019-05-14T01:20:06.634Z,99869.59
2019-05-14T01:22:42.209Z,99879.31
2019-05-14T01:25:14.210Z,99879.89
2019-05-14T01:27:45.872Z,99880.36
2019-05-14T01:30:17.640Z,99882.14
2019-05-14T01:32:51.181Z,99876.53
2019-05-14T01:35:24.643Z,99878.28
2019-05-14T01:37:56.747Z,99876.91
2019-05-14T01:40:31.538Z,99872.80
2019-05-14T01:43:03.129Z,99868.92
2019-05-14T01:45:35.195Z,99868.92
2019-05-14T01:48:06.876Z,99858.93
2019-05-14T01:50:38.596Z,99855.41
2019-05-14T01:53:11.554Z,99860.98
2019-05-14T01:55:43.574Z,99860.78
2019-05-14T01:58:15.250Z,99859.72
2019-05-14T02:00:47.007Z,99850.45
2019-05-14T02:03:18.772Z,99855.32
2019-05-14T02:05:52.107Z,99855.48
2019-05-14T02:08:25.678Z,99857.47
2019-05-14T02:10:57.306Z,99855.66
2019-05-14T02:13:28.994Z,99846.09
2019-05-14T02:16:01.619Z,99858.34
2019-05-14T02:18:34.083Z,99857.91
2019-05-14T02:21:06.034Z,99861.30
2019-05-14T02:23:37.662Z,99865.50
2019-05-14T02:26:11.434Z,99863.91
2019-05-14T02:28:43.240Z,99862.02
2019-05-14T02:31:15.412Z,99871.74
2019-05-14T02:33:50.467Z,99869.35
2019-05-14T02:36:20.710Z,99864.08
2019-05-14T02:38:53.550Z,99866.75
2019-05-14T02:41:25.195Z,99862.20
2019-05-14T02:43:59.653Z,99869.08
2019-05-14T02:46:31.384Z,99873.27
2019-05-14T02:49:03.109Z,99880.08
2019-05-14T02:51:35.092Z,99870.19
2019-05-14T02:54:09.660Z,99869.60
2019-05-14T02:56:40.598Z,99872.47
2019-05-14T02:59:14.785Z,99872.63
2019-05-14T03:01:49.411Z,99863.32
2019-05-14T03:04:20.108Z,99863.59
2019-05-14T03:06:51.843Z,99860.92
2019-05-14T03:09:23.527Z,99867.86
2019-05-14T03:11:55.254Z,99869.55
2019-05-14T03:14:29.917Z,99859.70
2019-05-14T03:17:01.574Z,99860.61
2019-05-14T03:19:33.307Z,99859.71
2019-05-14T03:22:04.989Z,99864.37
2019-05-14T03:24:39.420Z,99865.50
2019-05-14T03:27:10.273Z,99864.17
2019-05-14T03:29:41.926Z,99861.39
2019-05-14T03:32:14.149Z,99862.09
2019-05-14T03:34:52.161Z,99865.42
2019-05-14T03:37:23.506Z,99864.64
2019-05-14T03:39:53.126Z,99863.63
2019-05-14T03:42:24.797Z,99860.77
2019-05-14T03:44:59.762Z,99865.70
2019-05-14T03:47:32.590Z,99855.70
2019-05-14T03:50:04.332Z,99863.86
2019-05-14T03:52:35.992Z,99865.81
2019-05-14T03:55:09.468Z,99859.17
2019-05-14T03:57:41.213Z,99859.53
2019-05-14T04:00:12.958Z,99863.08
2019-05-14T04:02:44.642Z,99871.44
2019-05-14T04:05:19.777Z,99872.84
2019-05-14T04:07:50.535Z,99875.05
2019-05-14T04:10:22.343Z,99875.91
2019-05-14T04:12:54.076Z,99876.27
2019-05-14T04:15:29.858Z,99877.03
2019-05-14T04:18:00.659Z,99875.77
2019-05-14T04:20:33.457Z,99869.84
2019-05-14T04:23:05.136Z,99874.13
2019-05-14T04:25:39.011Z,99878.52
2019-05-14T04:28:11.034Z,99869.80
2019-05-14T04:30:42.840Z,99881.53
2019-05-14T04:33:18.901Z,99873.38
2019-05-14T04:35:51.441Z,99875.74
2019-05-14T04:38:23.169Z,99877.73
2019-05-14T04:40:59.489Z,99879.30
2019-05-14T04:43:32.030Z,99893.59
2019-05-14T04:46:03.789Z,99879.30
2019-05-14T04:48:41.585Z,99889.03
2019-05-14T04:51:09.887Z,99896.25
2019-05-14T04:53:41.792Z,99884.33
2019-05-14T04:56:14.710Z,99891.33
2019-05-14T04:58:49.731Z,99892.11
2019-05-14T05:01:20.996Z,99894.19
2019-05-14T05:03:58.774Z,99892.00
2019-05-14T05:06:30.127Z,99894.08
2019-05-14T05:09:03.551Z,99895.80
2019-05-14T05:11:35.240Z,99897.20
2019-05-14T05:14:08.820Z,99914.59
2019-05-14T05:16:40.371Z,99905.24
2019-05-14T05:19:12.234Z,99907.80
2019-05-14T05:21:44.131Z,99917.93
2019-05-14T05:24:18.431Z,99916.03
2019-05-14T05:26:50.270Z,99914.98
2019-05-14T05:29:21.961Z,99916.89
2019-05-14T05:31:54.048Z,99916.50
2019-05-14T05:34:28.152Z,99916.78
2019-05-14T05:36:59.473Z,99920.00
2019-05-14T05:39:31.390Z,99917.75
2019-05-14T05:42:03.115Z,99923.05
2019-05-14T05:44:35.140Z,99923.23
2019-05-14T05:47:09.224Z,99922.77
2019-05-14T05:49:40.420Z,99920.58
2019-05-14T05:52:13.330Z,99926.05
2019-05-14T05:54:45.495Z,99930.78
2019-05-14T05:57:19.303Z,99931.35
2019-05-14T05:59:52.477Z,99924.71
2019-05-14T06:02:24.215Z,99933.20
2019-05-14T06:04:55.903Z,99933.06
2019-05-14T06:07:28.824Z,99936.48
2019-05-14T06:10:01.164Z,99928.18
2019-05-14T06:12:32.907Z,99934.63
2019-05-14T06:15:04.924Z,99933.33
2019-05-14T06:17:39.005Z,99931.86
2019-05-14T06:20:10.601Z,99931.41
2019-05-14T06:22:42.327Z,99941.79
2019-05-14T06:25:14.065Z,99946.73
2019-05-14T06:27:45.749Z,99940.20
2019-05-14T06:30:24.767Z,99939.06
2019-05-14T06:32:59.461Z,99933.96
2019-05-14T06:35:31.187Z,99939.89
2019-05-14T06:38:03.053Z,99941.72
2019-05-14T06:40:34.764Z,99945.98
2019-05-14T06:43:09.034Z,99940.99
2019-05-14T06:45:42.298Z,99948.61
2019-05-14T06:48:26.988Z,99945.40
2019-05-14T06:50:50.205Z,99951.04
2019-05-14T06:53:24.661Z,99950.03
2019-05-14T06:55:58.562Z,99951.57
2019-05-14T06:58:30.053Z,99954.20
2019-05-14T07:01:02.063Z,99950.00
2019-05-14T07:03:33.816Z,99952.01
2019-05-14T07:06:05.559Z,99948.64
2019-05-14T07:08:39.264Z,99940.02
2019-05-14T07:11:12.416Z,99943.92
2019-05-14T07:13:44.145Z,99946.83
2019-05-14T07:16:15.865Z,99937.61
2019-05-14T07:18:52.817Z,99940.42
2019-05-14T07:21:21.698Z,99933.54
2019-05-14T07:23:53.416Z,99933.61
2019-05-14T07:26:29.493Z,99938.73
2019-05-14T07:29:01.228Z,99929.75
2019-05-14T07:31:33.014Z,99931.66
2019-05-14T07:34:04.723Z,99927.52
2019-05-14T07:36:38.746Z,99921.36
2019-05-14T07:39:10.776Z,99923.11
2019-05-14T07:41:42.506Z,99925.02
2019-05-14T07:44:14.342Z,99924.92
2019-05-14T07:46:48.292Z,99923.22
2019-05-14T07:49:20.226Z,99915.56
2019-05-14T07:51:51.903Z,99923.61
2019-05-14T07:54:23.958Z,99919.94
2019-05-14T07:56:55.656Z,99912.31
2019-05-14T07:59:28.715Z,99910.98
2019-05-14T08:02:00.966Z,99913.02
2019-05-14T08:04:34.537Z,99907.45
2019-05-14T08:07:08.714Z,99908.30
2019-05-14T08:09:39.745Z,99912.55
2019-05-14T08:12:12.946Z,99912.71
2019-05-14T08:14:57.939Z,99907.83
2019-05-14T08:17:19.071Z,99908.98
2019-05-14T08:19:50.975Z,99908.98
2019-05-14T08:22:22.717Z,99905.85
2019-05-14T08:24:54.448Z,99910.64
2019-05-14T08:27:30.920Z,99908.16
2019-05-14T08:30:00.879Z,99911.34
2019-05-14T08:32:32.611Z,99909.69
2019-05-14T08:35:04.541Z,99898.38
2019-05-14T08:37:38.495Z,99904.38
2019-05-14T08:40:10.808Z,99904.14
2019-05-14T08:42:43.497Z,99899.79
2019-05-14T08:45:15.213Z,99901.64
2019-05-14T08:47:48.276Z,99902.17
2019-05-14T08:50:22.189Z,99898.95
2019-05-14T08:52:54.056Z,99893.58
2019-05-14T08:55:25.821Z,99889.45
2019-05-14T08:57:59.246Z,99889.45
2019-05-14T09:00:30.959Z,99887.16
2019-05-14T09:03:03.293Z,99883.69
2019-05-14T09:05:35.125Z,99885.86
2019-05-14T09:08:08.943Z,99888.28
2019-05-14T09:10:42.014Z,99893.37
2019-05-14T09:13:13.823Z,99886.96
2019-05-14T09:15:45.527Z,99884.94
2019-05-14T09:18:18.434Z,99890.29
2019-05-14T09:20:50.317Z,99888.61
2019-05-14T09:23:22.078Z,99882.17
2019-05-14T09:25:58.568Z,99882.53
2019-05-14T09:28:29.299Z,99881.41
2019-05-14T09:31:01.038Z,99880.59
2019-05-14T09:33:32.740Z,99874.91
2019-05-14T09:36:14.717Z,99872.24
2019-05-14T09:38:42.381Z,99872.48
2019-05-14T09:41:15.251Z,99874.62
2019-05-14T09:43:45.685Z,99864.91
2019-05-14T09:46:18.478Z,99873.92
2019-05-14T09:48:52.010Z,99865.30
2019-05-14T09:51:24.165Z,99863.75
2019-05-14T09:53:55.841Z,99868.39
2019-05-14T09:56:29.084Z,99867.03
2019-05-14T09:59:01.149Z,99865.78
2019-05-14T10:01:38.305Z,99865.36
2019-05-14T10:04:09.898Z,99860.48
2019-05-14T10:06:41.644Z,99858.36
2019-05-14T10:09:13.359Z,99864.47
2019-05-14T10:11:45.686Z,99857.28
2019-05-14T10:14:17.327Z,99856.02
2019-05-14T10:16:50.856Z,99856.02
2019-05-14T10:19:22.668Z,99848.12
2019-05-14T10:21:54.360Z,99851.00
2019-05-14T10:24:26.113Z,99857.67
2019-05-14T10:26:58.652Z,99859.66
2019-05-14T10:29:30.461Z,99858.03
2019-05-14T10:32:02.231Z,99859.30
2019-05-14T10:34:33.974Z,99856.69
2019-05-14T10:37:08.396Z,99854.80
2019-05-14T10:39:39.403Z,99861.39
2019-05-14T10:42:11.427Z,99859.51
2019-05-14T10:44:44.668Z,99854.39
2019-05-14T10:47:18.751Z,99858.11
2019-05-14T10:49:50.082Z,99859.42
2019-05-14T10:52:21.902Z,99854.40
2019-05-14T10:54:55.915Z,99860.78
2019-05-14T10:57:29.006Z,99861.95
2019-05-14T11:00:00.539Z,99850.54
2019-05-14T11:02:32.320Z,99854.66
2019-05-14T11:05:04.028Z,99852.02
2019-05-14T11:07:35.836Z,99854.58
2019-05-14T11:10:09.237Z,99847.03
2019-05-14T11:12:41.104Z,99852.02
2019-05-14T11:15:12.835Z,99858.13
2019-05-14T11:17:44.509Z,99849.84
2019-05-14T11:20:20.728Z,99851.21
2019-05-14T11:22:52.494Z,99849.16
2019-05-14T11:25:24.664Z,99847.95
2019-05-14T11:27:58.470Z,99844.84
2019-05-14T11:30:31.383Z,99845.20
2019-05-14T11:33:03.066Z,99844.46
2019-05-14T11:35:34.777Z,99842.59
2019-05-14T11:38:24.073Z,99843.09
2019-05-14T11:40:39.954Z,99847.56
2019-05-14T11:43:12.766Z,99844.03
2019-05-14T11:45:44.514Z,99847.45
2019-05-14T11:48:19.064Z,99845.41
2019-05-14T11:50:49.690Z,99837.78
2019-05-14T11:53:21.506Z,99843.57
2019-05-14T11:55:53.210Z,99836.89
2019-05-14T11:58:24.915Z,99830.36
2019-05-14T12:00:58.437Z,99837.02
2019-05-14T12:03:30.320Z,99835.06
2019-05-14T12:06:01.965Z,99836.29
2019-05-14T12:08:33.980Z,99829.50
2019-05-14T12:11:09.381Z,99825.27
2019-05-14T12:13:41.898Z,99814.97
2019-05-14T12:16:13.591Z,99819.25
2019-05-14T12:18:45.278Z,99816.17
2019-05-14T12:21:16.926Z,99813.48
2019-05-14T12:23:48.763Z,99805.80
2019-05-14T12:26:20.485Z,99809.65
2019-05-14T12:28:55.913Z,99809.70
2019-05-14T12:31:25.665Z,99811.80
2019-05-14T12:33:58.398Z,99805.58
2019-05-14T12:36:30.159Z,99810.95
2019-05-14T12:39:01.915Z,99808.52
2019-05-14T12:41:34.827Z,99802.54
2019-05-14T12:44:09.258Z,99801.66
2019-05-14T12:46:41.811Z,99797.48
2019-05-14T12:49:14.651Z,99804.41
2019-05-14T12:51:49.152Z,99799.17
2019-05-14T12:54:20.096Z,99791.56
2019-05-14T12:56:52.846Z,99792.16
2019-05-14T12:59:24.604Z,99784.89
2019-05-14T13:01:58.852Z,99789.19
2019-05-14T13:04:33.324Z,99784.03
2019-05-14T13:07:05.069Z,99780.08
2019-05-14T13:09:38.512Z,99778.72
2019-05-14T13:12:11.464Z,99780.62
2019-05-14T13:14:45.573Z,99778.41
2019-05-14T13:17:18.742Z,99778.00
2019-05-14T13:19:50.629Z,99775.29
2019-05-14T13:22:36.590Z,99771.36
2019-05-14T13:24:58.034Z,99771.52
2019-05-14T13:27:29.380Z,99773.47
2019-05-14T13:30:01.120Z,99767.41
2019-05-14T13:32:32.835Z,99767.38
2019-05-14T13:35:12.273Z,99764.51
2019-05-14T13:37:40.721Z,99769.30
2019-05-14T13:40:13.892Z,99764.95
2019-05-14T13:42:45.907Z,99766.83
2019-05-14T13:45:19.088Z,99765.07
2019-05-14T13:47:51.266Z,99758.95
2019-05-14T13:50:23.966Z,99752.00
2019-05-14T13:53:06.913Z,99751.71
2019-05-14T13:55:30.723Z,99752.53
2019-05-14T13:58:02.618Z,99753.40
2019-05-14T14:00:34.521Z,99758.11
2019-05-14T14:03:06.294Z,99753.22
2019-05-14T14:05:39.177Z,99748.60
2019-05-14T14:08:11.413Z,99750.29
2019-05-14T14:10:46.185Z,99759.79
2019-05-14T14:13:19.494Z,99759.63
2019-05-14T14:15:50.369Z,99750.13
2019-05-14T14:18:22.512Z,99752.64
2019-05-14T14:20:54.230Z,99753.03
2019-05-14T14:23:30.834Z,99745.50
2019-05-14T14:26:00.424Z,99741.21
2019-05-14T14:28:32.179Z,99740.30
2019-05-14T14:31:07.440Z,99736.36
2019-05-14T14:33:39.179Z,99736.20
2019-05-14T14:36:11.281Z,99736.82
2019-05-14T14:38:43.486Z,99734.84
2019-05-14T14:41:15.203Z,99737.95
2019-05-14T14:43:53.258Z,99732.86
2019-05-14T14:46:22.256Z,99731.28
2019-05-14T14:48:57.824Z,99728.97
2019-05-14T14:51:28.527Z,99729.38
2019-05-14T14:54:10.829Z,99732.52
2019-05-14T14:56:37.987Z,99727.59
2019-05-14T14:59:10.081Z,99725.19
2019-05-14T15:01:44.398Z,99720.39
2019-05-14T15:04:19.484Z,99734.84
2019-05-14T15:06:51.417Z,99734.94
2019-05-14T15:09:23.443Z,99737.75
2019-05-14T15:11:55.238Z,99732.06
2019-05-14T15:14:29.717Z,99730.78
2019-05-14T15:17:00.400Z,99735.72
2019-05-14T15:19:32.585Z,99739.55
2019-05-14T15:22:04.361Z,99736.70
2019-05-14T15:24:36.509Z,99733.52
2019-05-14T15:27:14.799Z,99734.97
2019-05-14T15:29:43.183Z,99733.05
2019-05-14T15:32:19.716Z,99738.06
2019-05-14T15:34:51.710Z,99736.89
2019-05-14T15:37:23.491Z,99734.20
2019-05-14T15:39:55.223Z,99733.91
2019-05-14T15:42:28.389Z,99738.20
2019-05-14T15:45:00.621Z,99744.50
2019-05-14T15:47:32.387Z,99738.78
2019-05-14T15:50:05.779Z,99739.88
2019-05-14T15:52:39.395Z,99744.72
2019-05-14T15:55:11.071Z,99739.18
2019-05-14T15:57:42.875Z,99736.13
2019-05-14T16:00:14.591Z,99730.34
2019-05-14T16:02:46.372Z,99741.90
2019-05-14T16:05:19.173Z,99742.86
2019-05-14T16:07:50.926Z,99736.26
2019-05-14T16:10:22.687Z,99741.59
2019-05-14T16:12:54.384Z,99742.53
2019-05-14T16:15:28.127Z,99732.16
2019-05-14T16:18:07.773Z,99730.17
2019-05-14T16:20:34.228Z,99736.25
2019-05-14T16:23:05.954Z,99735.20
2019-05-14T16:25:38.093Z,99738.11
2019-05-14T16:28:10.090Z,99741.98
2019-05-14T16:30:41.899Z,99744.48
2019-05-14T16:33:13.644Z,99743.97
2019-05-14T16:35:45.410Z,99739.69
2019-05-14T16:38:17.459Z,99738.41
2019-05-14T16:40:49.197Z,99745.39
2019-05-14T16:43:21.001Z,99743.58
2019-05-14T16:45:52.716Z,99746.23
2019-05-14T16:48:25.449Z,99745.59
2019-05-14T16:50:58.422Z,99752.92
2019-05-14T16:53:30.372Z,99749.84
2019-05-14T16:56:04.615Z,99756.05
2019-05-14T16:58:38.734Z,99751.91
2019-05-14T17:01:10.090Z,99753.02
2019-05-14T17:03:42.072Z,99754.25
2019-05-14T17:06:14.197Z,99756.36
2019-05-14T17:08:48.641Z,99758.00
2019-05-14T17:11:19.555Z,99756.55
2019-05-14T17:13:53.801Z,99758.06
2019-05-14T17:16:25.567Z,99753.11
2019-05-14T17:18:59.165Z,99757.99
2019-05-14T17:21:31.461Z,99755.70
2019-05-14T17:24:03.225Z,99763.43
2019-05-14T17:26:34.973Z,99764.34
2019-05-14T17:29:08.779Z,99757.67
2019-05-14T17:31:40.197Z,99754.83
2019-05-14T17:34:12.291Z,99751.53
2019-05-14T17:36:44.476Z,99749.28
2019-05-14T17:39:18.636Z,99746.73
2019-05-14T17:41:49.777Z,99741.72
2019-05-14T17:44:21.683Z,99740.58
2019-05-14T17:46:53.579Z,99738.41
2019-05-14T17:49:25.482Z,99730.94
2019-05-14T17:51:58.112Z,99735.78
2019-05-14T17:54:30.206Z,99742.95
2019-05-14T17:57:01.923Z,99740.63
2019-05-14T17:59:33.957Z,99746.73
2019-05-14T18:02:08.673Z,99743.41
2019-05-14T18:04:40.475Z,99745.28
2019-05-14T18:07:12.181Z,99743.11
2019-05-14T18:09:43.934Z,99743.48
2019-05-14T18:12:18.863Z,99741.50
2019-05-14T18:14:50.159Z,99745.51
2019-05-14T18:17:21.915Z,99746.37
2019-05-14T18:19:53.671Z,99749.89
2019-05-14T18:22:25.378Z,99747.45
2019-05-14T18:24:59.281Z,99750.67
2019-05-14T18:27:31.728Z,99750.47
2019-05-14T18:30:04.081Z,99748.84
2019-05-14T18:32:36.846Z,99754.91
2019-05-14T18:35:08.606Z,99750.19
2019-05-14T18:37:40.367Z,99747.57
2019-05-14T18:40:12.133Z,99750.37
2019-05-14T18:42:44.912Z,99748.49
2019-05-14T18:45:19.024Z,99749.53
2019-05-14T18:47:50.898Z,99752.48
2019-05-14T18:50:22.698Z,99745.78
2019-05-14T18:52:54.832Z,99751.82
2019-05-14T18:55:29.125Z,99751.02
2019-05-14T18:58:00.360Z,99752.98
2019-05-14T19:00:33.419Z,99754.48
2019-05-14T19:03:05.133Z,99751.53
2019-05-14T19:05:38.746Z,99751.27
2019-05-14T19:08:10.496Z,99750.12
2019-05-14T19:10:42.227Z,99749.73
2019-05-14T19:13:13.941Z,99759.74
2019-05-14T19:15:48.172Z,99754.91
2019-05-14T19:18:21.923Z,99748.37
2019-05-14T19:20:55.814Z,99752.14
2019-05-14T19:23:29.083Z,99753.20
2019-05-14T19:26:00.846Z,99754.58
2019-05-14T19:28:33.910Z,99757.31
2019-05-14T19:31:05.779Z,99758.69
2019-05-14T19:33:40.171Z,99753.81
2019-05-14T19:36:12.087Z,99758.05
2019-05-14T19:38:44.124Z,99755.70
2019-05-14T19:41:23.090Z,99757.91
2019-05-14T19:44:20.146Z,99756.43
2019-05-14T19:46:52.566Z,99759.99
2019-05-14T19:49:24.335Z,99753.91
2019-05-14T19:51:56.191Z,99751.72
2019-05-14T19:54:29.222Z,99755.44
2019-05-14T19:57:01.749Z,99762.84
2019-05-14T19:59:33.560Z,99764.84
2019-05-14T20:02:05.476Z,99771.23
2019-05-14T20:04:37.270Z,99772.91
2019-05-14T20:07:09.110Z,99776.03
2019-05-14T20:09:40.849Z,99781.73
2019-05-14T20:12:14.332Z,99786.22
2019-05-14T20:14:48.866Z,99782.18
2019-05-14T20:17:20.974Z,99787.31
2019-05-14T20:19:52.758Z,99789.94
2019-05-14T20:22:24.599Z,99796.27
2019-05-14T20:24:56.350Z,99789.07
2019-05-14T20:27:28.344Z,99798.66
2019-05-14T20:30:01.897Z,99797.44
2019-05-14T20:32:35.399Z,99795.37
2019-05-14T20:35:09.018Z,99803.71
2019-05-14T20:37:41.155Z,99801.95
2019-05-14T20:40:13.902Z,99797.89
2019-05-14T20:42:49.327Z,99801.68
2019-05-14T20:45:21.556Z,99807.61
2019-05-14T20:47:55.911Z,99815.62
2019-05-14T20:50:29.609Z,99811.19
2019-05-14T20:53:01.463Z,99816.98
2019-05-14T20:55:33.201Z,99812.65
2019-05-14T20:58:04.912Z,99821.84
2019-05-14T21:00:41.196Z,99829.30
2019-05-14T21:03:10.439Z,99831.94
2019-05-14T21:05:44.745Z,99839.16
2019-05-14T21:08:19.030Z,99839.19
2019-05-14T21:10:51.179Z,99843.92
2019-05-14T21:13:22.975Z,99848.91
2019-05-14T21:16:01.520Z,99855.73
2019-05-14T21:18:35.385Z,99862.72
2019-05-14T21:21:10.923Z,99863.57
2019-05-14T21:23:40.883Z,99858.25
2019-05-14T21:26:12.726Z,99854.66
2019-05-14T21:28:44.649Z,99862.02
2019-05-14T21:31:18.110Z,99865.77
2019-05-14T21:33:53.475Z,99862.98
2019-05-14T21:36:28.555Z,99864.89
2019-05-14T21:39:00.882Z,99867.70
2019-05-14T21:41:38.628Z,99874.80
2019-05-14T21:44:10.834Z,99870.41
2019-05-14T21:46:42.987Z,99880.66
2019-05-14T21:49:14.825Z,99884.11
2019-05-14T21:51:48.341Z,99886.98
2019-05-14T21:54:23.833Z,99889.93
2019-05-14T21:56:59.588Z,99893.47
2019-05-14T21:59:34.498Z,99893.91
2019-05-14T22:02:08.038Z,99889.86
2019-05-14T22:04:41.100Z,99884.84
2019-05-14T22:07:12.933Z,99882.17
2019-05-14T22:09:48.777Z,99881.31
2019-05-14T22:12:20.919Z,99880.13
2019-05-14T22:14:55.933Z,99876.70
2019-05-14T22:17:28.517Z,99881.91
2019-05-14T22:20:00.413Z,99882.97
2019-05-14T22:22:32.178Z,99879.92
2019-05-14T22:25:05.626Z,99882.53
2019-05-14T22:27:39.295Z,99887.72
2019-05-14T22:30:13.055Z,99884.61
2019-05-14T22:32:44.872Z,99881.34
2019-05-14T22:35:18.669Z,99884.03
2019-05-14T22:37:50.540Z,99884.89
2019-05-14T22:40:23.231Z,99881.69
2019-05-14T22:43:00.047Z,99884.93
2019-05-14T22:45:30.237Z,99879.42
2019-05-14T22:48:02.093Z,99880.36
2019-05-14T22:50:34.247Z,99879.77
2019-05-14T22:53:09.222Z,99875.81
2019-05-14T22:55:40.662Z,99882.66
2019-05-14T22:58:24.713Z,99885.00
2019-05-14T23:00:58.015Z,99877.38
2019-05-14T23:03:24.625Z,99877.24
2019-05-14T23:05:58.213Z,99866.51
2019-05-14T23:08:29.923Z,99878.34
2019-05-14T23:11:08.688Z,99882.59
2019-05-14T23:13:40.970Z,99878.47
2019-05-14T23:16:14.457Z,99876.28
2019-05-14T23:18:48.580Z,99882.14
2019-05-14T23:21:21.978Z,99875.75
2019-05-14T23:23:55.390Z,99872.23
2019-05-14T23:26:28.680Z,99873.23
2019-05-14T23:29:00.546Z,99869.94
2019-05-14T23:31:32.362Z,99868.16
2019-05-14T23:34:06.599Z,99872.55
2019-05-14T23:36:38.943Z,99864.53
2019-05-14T23:39:10.781Z,99860.36
2019-05-14T23:41:42.544Z,99862.78
2019-05-14T23:44:14.369Z,99861.63
2019-05-14T23:46:48.935Z,99861.38
2019-05-14T23:49:22.466Z,99853.61
2019-05-14T23:51:57.376Z,99849.84
2019-05-14T23:54:29.326Z,99847.55
2019-05-14T23:57:04.073Z,99842.94
2019-05-14T23:59:39.623Z,99846.56
